ENSG

Sogndal Airport

Sogndal, Norway
METAR ENSG 230650Z VRB01KT 9999 BKN004 M08/M08 Q1025 RMK WIND 3806FT 19005KT
Observed Flight Rules
Feb-23 @ 06:50 UTC (an hour ago) Instrument Flight Rules
Wind Visibility Clouds
Variable at 1 knots 10,000+ meters
  • Broken at 400' AGL
Temperatures Readings
Current -8°C / 18°F
Dewpoint -8°C / 18°F
Humidity 100%
Altimeter 30.27" Hg
Pressure 1025 hPa
Elevation 497
METAR ENSG 230650Z VRB01KT 9999 BKN004 M08/M08 Q1025 RMK WIND 3806FT 19005KT
Observed Flight Rules
Feb-23 @ 06:50 UTC
(an hour ago)
LIFR
Wind Visibility
Variable at 1 knots 10,000+ meters
Clouds
  • Broken at 400' AGL
Temperature Dewpoint
-8°C / 18°F -8°C / 18°F
Humidity Altimeter Pressure
100% 30.27" Hg 1025 hPa